METAR Data
IDs: Format: Raw Decoded Include TAF

Data at: 1557 UTC 18 Aug 2019

PAWS 181556Z AUTO 07021G33KT 10SM CLR 13/M02 A3010 RMK AO2 PK WND 09033/1548 SLP197 T01331017
PAWS 181456Z AUTO 06020G30KT 10SM CLR 13/M02 A3012 RMK AO2 PK WND 09032/1436 SLP202 T01331017 58011
PAWS 181356Z AUTO 06019G28KT 10SM CLR 13/M02 A3014 RMK AO2 PK WND 06030/1305 SLP209 T01331017
PAWS 181256Z AUTO 06022G30KT 10SM CLR 13/M01 A3015 RMK AO2 PK WND 06032/1205 SLP212 T01331011
PAWS 181156Z AUTO 06020G32KT 10SM CLR 14/M01 A3015 RMK AO2 PK WND 07033/1128 SLP212 T01391006 10183 20139 56005
PAWS 181056Z AUTO 06017G29KT 10SM CLR 14/M01 A3016 RMK AO2 PK WND 07031/1035 SLP215 T01441006
PAWS 180956Z AUTO 07020G27KT 10SM CLR 15/M01 A3016 RMK AO2 PK WND 05028/0913 SLP216 T01501006
PAWS 180856Z AUTO 06018G26KT 10SM CLR 16/M01 A3017 RMK AO2 PK WND 06029/0842 SLP218 T01611006 402280100 53003
PAWS 180756Z AUTO 07015G24KT 10SM CLR 17/M02 A3016 RMK AO2 PK WND 07026/0734 SLP214 T01671017
PAWS 180656Z AUTO 06014G21KT 10SM CLR 17/M02 A3016 RMK AO2 SLP217 T01721017
PAWS 180556Z AUTO 07011KT 10SM CLR 18/M01 A3016 RMK AO2 SLP216 T01831011 10228 20178 58002
PAWS 180456Z AUTO 05009KT 10SM CLR 19/M02 A3016 RMK AO2 SLP217 T01941022
PAWS 180356Z AUTO 05013G17KT 10SM CLR 21/M02 A3017 RMK AO2 SLP217 T02111022
PAWS 180256Z AUTO 07015G23KT 10SM CLR 22/M02 A3017 RMK AO2 PK WND 06027/0207 SLP218 T02171017 56006
PAWS 180156Z AUTO 08015G21KT 10SM CLR 22/M03 A3017 RMK AO2 SLP219 T02221028
PAWS 180056Z AUTO 06015G22KT 10SM CLR 23/M02 A3018 RMK AO2 SLP220 T02281017
PAWS 172356Z AUTO 07012G21KT 10SM CLR 22/M01 A3019 RMK AO2 SLP223 T02221006 10222 20167 58010
PAWS 172256Z AUTO 07014G23KT 10SM CLR 21/01 A3020 RMK AO2 SLP229 T02110006
PAWS 172156Z AUTO 07013G25KT 10SM CLR 21/01 A3021 RMK AO2 SLP232 T02060006
PAWS 172056Z AUTO 07013G19KT 10SM CLR 20/01 A3022 RMK AO2 SLP234 T02000011 51004
PAWS 171956Z AUTO 02007G17KT 350V060 10SM CLR 20/01 A3021 RMK AO2 SLP232 T02000011
PAWS 171856Z AUTO 06009KT 020V090 10SM CLR 18/00 A3022 RMK AO2 SLP234 T01830000
PAWS 171756Z AUTO 05012G18KT 10SM CLR 17/00 A3020 RMK AO2 SLP230 T01670000 10167 20100 51019
PAWS 171656Z AUTO 06014G22KT 10SM CLR 16/M01 A3019 RMK AO2 SLP226 T01561006
PAWS 171556Z AUTO 07019G25KT 10SM CLR 15/M01 A3017 RMK AO2 PK WND 06027/1540 SLP219 T01501006
PAWS 171456Z AUTO 36008G17KT 10SM CLR 13/04 A3015 RMK AO2 SLP210 T01330039 51017
PAWS 171356Z AUTO 00000KT 10SM CLR 11/06 A3013 RMK AO2 SLP205 T01110061
PAWS 171256Z AUTO 36006KT 10SM CLR 13/06 A3012 RMK AO2 SLP200 T01330061
PAWS 171156Z AUTO 30008G17KT 10SM CLR 14/08 A3010 RMK AO2 SLP193 T01390078 10206 20139 50004
PAWS 171056Z AUTO VRB04KT 10SM CLR 16/04 A3010 RMK AO2 SLP194 T01560044
PAWS 170956Z AUTO 30006KT 10SM CLR 17/06 A3011 RMK AO2 SLP198 T01670056
PAWS 170856Z AUTO VRB03KT 10SM CLR 17/07 A3009 RMK AO2 SLP189 T01670067 402610133 53002
PAWS 170756Z AUTO VRB06KT 10SM CLR 18/07 A3007 RMK AO2 SLP185 T01830067
PAWS 170656Z AUTO VRB05KT 10SM OVC100 20/07 A3007 RMK AO2 SLP184 T02000072
PAWS 170556Z AUTO 00000KT 10SM OVC100 19/12 A3008 RMK AO2 SLP187 T01940117 10261 20194 58008
PAWS 170456Z AUTO VRB03KT 10SM SCT050 OVC100 20/13 A3009 RMK AO2 SLP192 T02000128